sensor_id;sensor_type;location;lat;lon;timestamp;noise_LAeq;noise_LA_min;noise_LA_max;noise_LA01;noise_LA95
40103;Laerm;25814;48.550;9.108;2024-02-14T00:01:28;33.65;30.31;42.92;;
40103;Laerm;25814;48.550;9.108;2024-02-14T00:03:54;32.47;30.13;44.52;;
40103;Laerm;25814;48.550;9.108;2024-02-14T00:06:20;31.96;29.91;36.75;;
40103;Laerm;25814;48.550;9.108;2024-02-14T00:08:46;31.95;29.95;35.49;;
40103;Laerm;25814;48.550;9.108;2024-02-14T00:11:13;40.10;30.13;53.06;;
40103;Laerm;25814;48.550;9.108;2024-02-14T00:13:39;31.25;29.98;34.72;;
40103;Laerm;25814;48.550;9.108;2024-02-14T00:16:06;31.14;29.56;36.03;;
40103;Laerm;25814;48.550;9.108;2024-02-14T00:18:32;31.28;29.72;35.17;;
40103;Laerm;25814;48.550;9.108;2024-02-14T00:20:58;34.54;29.74;49.56;;
40103;Laerm;25814;48.550;9.108;2024-02-14T00:23:24;30.84;29.63;34.31;;
40103;Laerm;25814;48.550;9.108;2024-02-14T00:25:50;31.42;29.54;34.90;;
40103;Laerm;25814;48.550;9.108;2024-02-14T00:28:16;37.28;29.40;52.95;;
40103;Laerm;25814;48.550;9.108;2024-02-14T00:30:43;34.43;29.99;45.19;;
40103;Laerm;25814;48.550;9.108;2024-02-14T00:33:09;40.28;30.20;54.77;;
40103;Laerm;25814;48.550;9.108;2024-02-14T00:35:35;34.53;29.98;42.61;;
40103;Laerm;25814;48.550;9.108;2024-02-14T00:38:01;34.76;30.11;42.11;;
40103;Laerm;25814;48.550;9.108;2024-02-14T00:40:27;31.20;29.79;35.34;;
40103;Laerm;25814;48.550;9.108;2024-02-14T00:42:54;30.96;29.57;35.43;;
40103;Laerm;25814;48.550;9.108;2024-02-14T00:45:20;31.15;29.69;34.97;;
40103;Laerm;25814;48.550;9.108;2024-02-14T00:47:46;31.53;29.72;37.80;;
40103;Laerm;25814;48.550;9.108;2024-02-14T00:50:12;30.98;29.65;34.91;;
40103;Laerm;25814;48.550;9.108;2024-02-14T00:52:39;30.97;29.47;35.04;;
40103;Laerm;25814;48.550;9.108;2024-02-14T00:55:05;31.36;29.61;35.56;;
40103;Laerm;25814;48.550;9.108;2024-02-14T00:57:32;32.95;30.54;36.68;;
40103;Laerm;25814;48.550;9.108;2024-02-14T00:59:58;34.30;30.20;40.15;;
40103;Laerm;25814;48.550;9.108;2024-02-14T01:02:25;35.23;32.29;42.32;;
40103;Laerm;25814;48.550;9.108;2024-02-14T01:04:52;32.65;31.15;36.23;;
40103;Laerm;25814;48.550;9.108;2024-02-14T01:07:18;32.95;30.96;38.70;;
40103;Laerm;25814;48.550;9.108;2024-02-14T01:09:44;32.98;30.74;36.50;;
40103;Laerm;25814;48.550;9.108;2024-02-14T01:12:10;36.33;33.72;40.42;;
40103;Laerm;25814;48.550;9.108;2024-02-14T01:14:36;36.48;33.29;42.96;;
40103;Laerm;25814;48.550;9.108;2024-02-14T01:17:02;38.47;36.15;44.71;;
40103;Laerm;25814;48.550;9.108;2024-02-14T01:19:29;39.07;35.53;46.82;;
40103;Laerm;25814;48.550;9.108;2024-02-14T01:21:55;40.63;35.80;47.39;;
40103;Laerm;25814;48.550;9.108;2024-02-14T01:24:24;39.70;35.45;46.05;;
40103;Laerm;25814;48.550;9.108;2024-02-14T01:26:51;36.85;33.15;41.83;;
40103;Laerm;25814;48.550;9.108;2024-02-14T01:29:19;35.71;32.80;39.46;;
40103;Laerm;25814;48.550;9.108;2024-02-14T01:31:45;34.29;31.70;37.65;;
40103;Laerm;25814;48.550;9.108;2024-02-14T01:34:11;33.43;30.78;38.09;;
40103;Laerm;25814;48.550;9.108;2024-02-14T01:36:37;34.51;29.55;41.45;;
40103;Laerm;25814;48.550;9.108;2024-02-14T01:39:04;31.92;30.09;36.33;;
40103;Laerm;25814;48.550;9.108;2024-02-14T01:41:36;31.94;30.05;40.02;;
40103;Laerm;25814;48.550;9.108;2024-02-14T01:44:02;33.41;30.07;42.62;;
40103;Laerm;25814;48.550;9.108;2024-02-14T01:46:29;31.72;29.58;36.25;;
40103;Laerm;25814;48.550;9.108;2024-02-14T01:48:56;31.62;29.89;36.06;;
40103;Laerm;25814;48.550;9.108;2024-02-14T01:51:24;31.13;29.56;35.61;;
40103;Laerm;25814;48.550;9.108;2024-02-14T01:53:51;32.52;30.01;37.14;;
40103;Laerm;25814;48.550;9.108;2024-02-14T01:56:18;31.87;29.87;36.75;;
40103;Laerm;25814;48.550;9.108;2024-02-14T01:58:44;32.03;29.97;36.43;;
40103;Laerm;25814;48.550;9.108;2024-02-14T02:01:11;32.52;29.87;36.87;;
40103;Laerm;25814;48.550;9.108;2024-02-14T02:03:37;31.33;29.40;36.40;;
40103;Laerm;25814;48.550;9.108;2024-02-14T02:06:05;31.04;29.45;36.25;;
40103;Laerm;25814;48.550;9.108;2024-02-14T02:08:32;31.26;29.43;36.04;;
40103;Laerm;25814;48.550;9.108;2024-02-14T02:10:58;31.35;29.80;35.73;;
40103;Laerm;25814;48.550;9.108;2024-02-14T02:13:24;31.13;29.48;35.87;;
40103;Laerm;25814;48.550;9.108;2024-02-14T02:15:53;31.62;29.93;36.87;;
40103;Laerm;25814;48.550;9.108;2024-02-14T02:18:19;31.55;29.93;36.09;;
40103;Laerm;25814;48.550;9.108;2024-02-14T02:20:45;34.80;29.42;47.41;;
40103;Laerm;25814;48.550;9.108;2024-02-14T02:23:12;30.69;29.13;35.51;;
40103;Laerm;25814;48.550;9.108;2024-02-14T02:25:39;31.04;29.22;36.01;;
40103;Laerm;25814;48.550;9.108;2024-02-14T02:28:05;31.01;29.65;36.19;;
40103;Laerm;25814;48.550;9.108;2024-02-14T02:30:31;30.82;29.47;35.75;;
40103;Laerm;25814;48.550;9.108;2024-02-14T02:33:01;31.38;29.84;36.02;;
40103;Laerm;25814;48.550;9.108;2024-02-14T02:35:28;31.20;29.51;35.81;;
40103;Laerm;25814;48.550;9.108;2024-02-14T02:37:54;31.19;29.48;36.32;;
40103;Laerm;25814;48.550;9.108;2024-02-14T02:40:20;31.29;29.49;36.10;;
40103;Laerm;25814;48.550;9.108;2024-02-14T02:42:49;30.85;29.34;35.79;;
40103;Laerm;25814;48.550;9.108;2024-02-14T02:45:16;31.15;29.50;36.41;;
40103;Laerm;25814;48.550;9.108;2024-02-14T02:47:43;31.11;29.71;35.80;;
40103;Laerm;25814;48.550;9.108;2024-02-14T02:50:09;31.05;29.60;35.87;;
40103;Laerm;25814;48.550;9.108;2024-02-14T02:52:35;30.95;29.39;36.00;;
40103;Laerm;25814;48.550;9.108;2024-02-14T02:55:01;31.37;29.81;36.27;;
40103;Laerm;25814;48.550;9.108;2024-02-14T02:57:28;31.26;29.65;36.07;;
40103;Laerm;25814;48.550;9.108;2024-02-14T02:59:57;31.55;29.32;36.16;;
40103;Laerm;25814;48.550;9.108;2024-02-14T03:02:23;32.87;30.67;38.97;;
40103;Laerm;25814;48.550;9.108;2024-02-14T03:04:51;31.95;29.92;36.78;;
40103;Laerm;25814;48.550;9.108;2024-02-14T03:07:19;32.05;30.16;37.38;;
40103;Laerm;25814;48.550;9.108;2024-02-14T03:09:46;31.78;30.09;36.33;;
40103;Laerm;25814;48.550;9.108;2024-02-14T03:12:12;33.24;30.04;38.38;;
40103;Laerm;25814;48.550;9.108;2024-02-14T03:14:41;32.75;30.53;37.90;;
40103;Laerm;25814;48.550;9.108;2024-02-14T03:17:09;32.23;30.20;36.70;;
40103;Laerm;25814;48.550;9.108;2024-02-14T03:19:36;32.32;30.62;36.78;;
40103;Laerm;25814;48.550;9.108;2024-02-14T03:22:04;34.22;30.74;45.74;;
40103;Laerm;25814;48.550;9.108;2024-02-14T03:24:31;32.01;30.19;38.70;;
40103;Laerm;25814;48.550;9.108;2024-02-14T03:27:00;32.48;30.27;37.16;;
40103;Laerm;25814;48.550;9.108;2024-02-14T03:29:27;32.78;30.84;37.31;;
40103;Laerm;25814;48.550;9.108;2024-02-14T03:31:53;32.81;30.78;36.84;;
40103;Laerm;25814;48.550;9.108;2024-02-14T03:34:19;33.16;30.55;38.00;;
40103;Laerm;25814;48.550;9.108;2024-02-14T03:36:46;33.23;31.11;37.25;;
40103;Laerm;25814;48.550;9.108;2024-02-14T03:39:12;33.76;30.87;38.38;;
40103;Laerm;25814;48.550;9.108;2024-02-14T03:41:38;32.98;30.70;39.58;;
40103;Laerm;25814;48.550;9.108;2024-02-14T03:44:04;33.14;30.81;38.00;;
40103;Laerm;25814;48.550;9.108;2024-02-14T03:46:32;34.26;32.01;39.15;;
40103;Laerm;25814;48.550;9.108;2024-02-14T03:49:00;34.31;31.32;38.10;;
40103;Laerm;25814;48.550;9.108;2024-02-14T03:51:26;33.50;31.71;37.28;;
40103;Laerm;25814;48.550;9.108;2024-02-14T03:53:53;34.56;31.80;38.92;;
40103;Laerm;25814;48.550;9.108;2024-02-14T03:56:19;33.08;30.85;37.84;;
40103;Laerm;25814;48.550;9.108;2024-02-14T03:58:45;33.78;31.46;37.78;;
40103;Laerm;25814;48.550;9.108;2024-02-14T04:01:15;34.35;31.48;50.84;;
40103;Laerm;25814;48.550;9.108;2024-02-14T04:03:41;33.05;31.12;37.83;;
40103;Laerm;25814;48.550;9.108;2024-02-14T04:06:07;35.00;32.61;40.96;;
40103;Laerm;25814;48.550;9.108;2024-02-14T04:08:34;34.44;32.69;38.72;;
40103;Laerm;25814;48.550;9.108;2024-02-14T04:11:00;35.72;32.16;42.44;;
40103;Laerm;25814;48.550;9.108;2024-02-14T04:13:26;52.27;32.30;67.82;;
40103;Laerm;25814;48.550;9.108;2024-02-14T04:15:52;34.28;31.70;38.34;;
40103;Laerm;25814;48.550;9.108;2024-02-14T04:18:18;35.53;33.36;39.46;;
40103;Laerm;25814;48.550;9.108;2024-02-14T04:20:45;36.51;33.76;44.53;;
40103;Laerm;25814;48.550;9.108;2024-02-14T04:23:11;36.80;33.44;44.05;;
40103;Laerm;25814;48.550;9.108;2024-02-14T04:25:37;35.22;32.58;40.58;;
40103;Laerm;25814;48.550;9.108;2024-02-14T04:28:03;35.73;33.35;39.90;;
40103;Laerm;25814;48.550;9.108;2024-02-14T04:30:29;35.28;32.37;38.86;;
40103;Laerm;25814;48.550;9.108;2024-02-14T04:32:55;34.81;32.81;40.00;;
40103;Laerm;25814;48.550;9.108;2024-02-14T04:35:22;35.69;33.18;39.92;;
40103;Laerm;25814;48.550;9.108;2024-02-14T04:37:49;35.70;33.43;40.51;;
40103;Laerm;25814;48.550;9.108;2024-02-14T04:40:15;35.83;33.21;41.32;;
40103;Laerm;25814;48.550;9.108;2024-02-14T04:42:41;35.28;32.88;45.61;;
40103;Laerm;25814;48.550;9.108;2024-02-14T04:45:08;36.10;33.44;40.43;;
40103;Laerm;25814;48.550;9.108;2024-02-14T04:47:34;36.38;33.52;40.77;;
40103;Laerm;25814;48.550;9.108;2024-02-14T04:50:00;36.03;33.82;39.32;;
40103;Laerm;25814;48.550;9.108;2024-02-14T04:52:29;35.82;32.93;42.50;;
40103;Laerm;25814;48.550;9.108;2024-02-14T04:54:56;35.03;32.52;41.44;;
40103;Laerm;25814;48.550;9.108;2024-02-14T04:57:22;35.18;32.52;39.78;;
40103;Laerm;25814;48.550;9.108;2024-02-14T04:59:48;37.41;33.64;46.12;;
40103;Laerm;25814;48.550;9.108;2024-02-14T05:02:15;38.08;33.48;46.40;;
40103;Laerm;25814;48.550;9.108;2024-02-14T05:04:41;39.78;35.04;49.88;;
40103;Laerm;25814;48.550;9.108;2024-02-14T05:07:07;37.20;34.36;42.89;;
40103;Laerm;25814;48.550;9.108;2024-02-14T05:09:33;37.72;35.16;45.14;;
40103;Laerm;25814;48.550;9.108;2024-02-14T05:11:59;37.33;32.82;47.49;;
40103;Laerm;25814;48.550;9.108;2024-02-14T05:14:26;36.24;33.59;49.52;;
40103;Laerm;25814;48.550;9.108;2024-02-14T05:16:55;39.32;34.08;50.16;;
40103;Laerm;25814;48.550;9.108;2024-02-14T05:19:21;40.21;35.70;45.25;;
40103;Laerm;25814;48.550;9.108;2024-02-14T05:21:48;37.65;34.96;41.29;;
40103;Laerm;25814;48.550;9.108;2024-02-14T05:24:14;36.96;34.66;40.65;;
40103;Laerm;25814;48.550;9.108;2024-02-14T05:26:41;38.09;35.44;45.16;;
40103;Laerm;25814;48.550;9.108;2024-02-14T05:29:07;37.34;34.86;42.57;;
40103;Laerm;25814;48.550;9.108;2024-02-14T05:31:45;37.38;34.28;43.13;;
40103;Laerm;25814;48.550;9.108;2024-02-14T05:34:11;41.74;36.25;55.84;;
40103;Laerm;25814;48.550;9.108;2024-02-14T05:36:37;38.96;36.63;46.34;;
40103;Laerm;25814;48.550;9.108;2024-02-14T05:39:04;39.23;36.21;46.25;;
40103;Laerm;25814;48.550;9.108;2024-02-14T05:41:33;39.33;34.92;51.02;;
40103;Laerm;25814;48.550;9.108;2024-02-14T05:44:00;37.43;35.38;41.59;;
40103;Laerm;25814;48.550;9.108;2024-02-14T05:46:26;37.22;34.57;46.13;;
40103;Laerm;25814;48.550;9.108;2024-02-14T05:48:53;38.11;35.79;42.59;;
40103;Laerm;25814;48.550;9.108;2024-02-14T05:51:20;51.90;34.86;75.18;;
40103;Laerm;25814;48.550;9.108;2024-02-14T05:53:46;38.72;36.05;49.72;;
40103;Laerm;25814;48.550;9.108;2024-02-14T05:56:12;39.29;36.40;45.95;;
40103;Laerm;25814;48.550;9.108;2024-02-14T05:58:38;38.97;37.09;43.36;;
40103;Laerm;25814;48.550;9.108;2024-02-14T06:01:04;39.65;36.65;46.56;;
40103;Laerm;25814;48.550;9.108;2024-02-14T06:03:31;39.90;35.68;52.62;;
40103;Laerm;25814;48.550;9.108;2024-02-14T06:05:57;41.27;36.29;52.62;;
40103;Laerm;25814;48.550;9.108;2024-02-14T06:08:24;38.31;35.15;48.59;;
40103;Laerm;25814;48.550;9.108;2024-02-14T06:10:50;40.44;35.95;58.84;;
40103;Laerm;25814;48.550;9.108;2024-02-14T06:13:16;39.90;37.05;49.26;;
40103;Laerm;25814;48.550;9.108;2024-02-14T06:15:42;50.39;36.55;65.20;;
40103;Laerm;25814;48.550;9.108;2024-02-14T06:18:08;42.98;36.40;61.08;;
40103;Laerm;25814;48.550;9.108;2024-02-14T06:20:35;42.06;36.28;60.18;;
40103;Laerm;25814;48.550;9.108;2024-02-14T06:23:01;41.22;36.72;54.92;;
40103;Laerm;25814;48.550;9.108;2024-02-14T06:25:27;44.90;37.58;61.22;;
40103;Laerm;25814;48.550;9.108;2024-02-14T06:27:53;41.10;37.04;60.63;;
40103;Laerm;25814;48.550;9.108;2024-02-14T06:30:19;39.50;36.05;44.99;;
40103;Laerm;25814;48.550;9.108;2024-02-14T06:32:45;41.52;35.73;61.27;;
40103;Laerm;25814;48.550;9.108;2024-02-14T06:35:12;41.95;35.80;59.00;;
40103;Laerm;25814;48.550;9.108;2024-02-14T06:37:40;44.74;37.03;62.75;;
40103;Laerm;25814;48.550;9.108;2024-02-14T06:40:07;41.91;37.33;54.69;;
40103;Laerm;25814;48.550;9.108;2024-02-14T06:42:34;40.11;37.15;45.62;;
40103;Laerm;25814;48.550;9.108;2024-02-14T06:45:00;41.61;37.57;58.77;;
40103;Laerm;25814;48.550;9.108;2024-02-14T06:47:26;46.86;38.10;62.16;;
40103;Laerm;25814;48.550;9.108;2024-02-14T06:49:56;42.99;38.13;56.72;;
40103;Laerm;25814;48.550;9.108;2024-02-14T06:52:22;50.90;37.62;63.09;;
40103;Laerm;25814;48.550;9.108;2024-02-14T06:54:48;41.79;37.14;52.83;;
40103;Laerm;25814;48.550;9.108;2024-02-14T06:57:14;41.07;36.88;51.39;;
40103;Laerm;25814;48.550;9.108;2024-02-14T06:59:41;40.21;37.20;48.53;;
40103;Laerm;25814;48.550;9.108;2024-02-14T07:02:07;40.04;37.01;43.46;;
40103;Laerm;25814;48.550;9.108;2024-02-14T07:04:33;39.72;36.68;56.23;;
40103;Laerm;25814;48.550;9.108;2024-02-14T07:07:00;40.85;36.44;53.15;;
40103;Laerm;25814;48.550;9.108;2024-02-14T07:09:26;39.60;37.21;44.00;;
40103;Laerm;25814;48.550;9.108;2024-02-14T07:11:52;43.75;37.44;61.05;;
40103;Laerm;25814;48.550;9.108;2024-02-14T07:14:24;41.53;37.11;56.69;;
40103;Laerm;25814;48.550;9.108;2024-02-14T07:16:50;42.52;37.53;60.08;;
40103;Laerm;25814;48.550;9.108;2024-02-14T07:19:16;40.79;36.36;49.26;;
40103;Laerm;25814;48.550;9.108;2024-02-14T07:21:42;41.85;37.60;54.06;;
40103;Laerm;25814;48.550;9.108;2024-02-14T07:24:09;41.51;37.12;56.54;;
40103;Laerm;25814;48.550;9.108;2024-02-14T07:26:35;41.06;37.17;56.47;;
40103;Laerm;25814;48.550;9.108;2024-02-14T07:29:01;43.78;36.47;57.34;;
40103;Laerm;25814;48.550;9.108;2024-02-14T07:31:31;39.27;36.37;51.61;;
40103;Laerm;25814;48.550;9.108;2024-02-14T07:33:59;40.35;36.48;53.60;;
40103;Laerm;25814;48.550;9.108;2024-02-14T07:36:25;44.26;37.44;54.42;;
40103;Laerm;25814;48.550;9.108;2024-02-14T07:38:52;44.61;37.40;56.51;;
40103;Laerm;25814;48.550;9.108;2024-02-14T07:41:18;48.12;37.53;67.81;;
40103;Laerm;25814;48.550;9.108;2024-02-14T07:43:44;40.87;36.63;56.05;;
40103;Laerm;25814;48.550;9.108;2024-02-14T07:46:10;39.14;36.59;47.47;;
40103;Laerm;25814;48.550;9.108;2024-02-14T07:48:37;43.22;36.53;59.17;;
40103;Laerm;25814;48.550;9.108;2024-02-14T07:51:07;43.58;36.96;65.13;;
40103;Laerm;25814;48.550;9.108;2024-02-14T07:53:33;41.73;37.16;58.47;;
40103;Laerm;25814;48.550;9.108;2024-02-14T07:55:59;42.92;36.72;61.38;;
40103;Laerm;25814;48.550;9.108;2024-02-14T07:58:25;41.16;36.42;58.75;;
40103;Laerm;25814;48.550;9.108;2024-02-14T08:00:52;40.91;37.49;49.64;;
40103;Laerm;25814;48.550;9.108;2024-02-14T08:03:18;41.15;37.25;57.63;;
40103;Laerm;25814;48.550;9.108;2024-02-14T08:05:44;40.73;36.99;52.54;;
40103;Laerm;25814;48.550;9.108;2024-02-14T08:08:10;46.66;37.83;56.60;;
40103;Laerm;25814;48.550;9.108;2024-02-14T08:10:36;41.97;36.31;54.16;;
40103;Laerm;25814;48.550;9.108;2024-02-14T08:13:02;39.30;36.32;53.12;;
40103;Laerm;25814;48.550;9.108;2024-02-14T08:15:29;40.19;37.45;50.43;;
40103;Laerm;25814;48.550;9.108;2024-02-14T08:17:55;38.80;36.48;46.48;;
40103;Laerm;25814;48.550;9.108;2024-02-14T08:20:22;43.12;36.09;56.71;;
40103;Laerm;25814;48.550;9.108;2024-02-14T08:22:49;45.49;36.55;56.68;;
40103;Laerm;25814;48.550;9.108;2024-02-14T08:25:15;38.98;36.01;45.77;;
40103;Laerm;25814;48.550;9.108;2024-02-14T08:27:41;40.35;35.60;55.03;;
40103;Laerm;25814;48.550;9.108;2024-02-14T08:30:07;38.93;36.58;46.46;;
40103;Laerm;25814;48.550;9.108;2024-02-14T08:32:34;42.14;35.97;56.08;;
40103;Laerm;25814;48.550;9.108;2024-02-14T08:35:00;38.38;35.36;49.28;;
40103;Laerm;25814;48.550;9.108;2024-02-14T08:37:27;40.24;35.76;50.40;;
40103;Laerm;25814;48.550;9.108;2024-02-14T08:39:53;42.31;37.93;52.18;;
40103;Laerm;25814;48.550;9.108;2024-02-14T08:42:19;43.97;36.90;60.82;;
40103;Laerm;25814;48.550;9.108;2024-02-14T08:44:45;40.58;36.70;50.44;;
40103;Laerm;25814;48.550;9.108;2024-02-14T08:47:11;43.56;36.13;55.26;;
40103;Laerm;25814;48.550;9.108;2024-02-14T08:49:41;45.17;35.28;58.31;;
40103;Laerm;25814;48.550;9.108;2024-02-14T08:52:07;45.56;35.05;58.23;;
40103;Laerm;25814;48.550;9.108;2024-02-14T08:54:34;45.05;35.24;57.82;;
40103;Laerm;25814;48.550;9.108;2024-02-14T08:57:00;43.77;34.64;61.53;;
40103;Laerm;25814;48.550;9.108;2024-02-14T08:59:26;44.00;36.52;57.07;;
40103;Laerm;25814;48.550;9.108;2024-02-14T09:01:52;38.31;34.26;55.78;;
40103;Laerm;25814;48.550;9.108;2024-02-14T09:04:18;39.90;34.65;52.28;;
40103;Laerm;25814;48.550;9.108;2024-02-14T09:06:44;45.66;33.28;65.24;;
40103;Laerm;25814;48.550;9.108;2024-02-14T09:09:10;40.02;34.32;53.25;;
40103;Laerm;25814;48.550;9.108;2024-02-14T09:11:37;38.02;34.36;47.27;;
40103;Laerm;25814;48.550;9.108;2024-02-14T09:14:03;40.89;33.93;61.31;;
40103;Laerm;25814;48.550;9.108;2024-02-14T09:16:35;43.62;35.13;57.53;;
40103;Laerm;25814;48.550;9.108;2024-02-14T09:19:01;43.11;34.47;57.03;;
40103;Laerm;25814;48.550;9.108;2024-02-14T09:21:27;42.81;34.38;55.61;;
40103;Laerm;25814;48.550;9.108;2024-02-14T09:23:54;47.48;35.77;58.99;;
40103;Laerm;25814;48.550;9.108;2024-02-14T09:26:20;38.66;33.90;52.68;;
40103;Laerm;25814;48.550;9.108;2024-02-14T09:28:46;44.20;33.92;60.31;;
40103;Laerm;25814;48.550;9.108;2024-02-14T09:31:20;51.66;34.48;70.95;;
40103;Laerm;25814;48.550;9.108;2024-02-14T09:33:49;56.55;34.03;73.96;;
40103;Laerm;25814;48.550;9.108;2024-02-14T09:36:15;47.57;34.74;58.46;;
40103;Laerm;25814;48.550;9.108;2024-02-14T09:38:42;44.74;35.30;59.70;;
40103;Laerm;25814;48.550;9.108;2024-02-14T09:41:21;38.47;34.23;51.83;;
40103;Laerm;25814;48.550;9.108;2024-02-14T09:43:48;40.55;33.85;55.91;;
40103;Laerm;25814;48.550;9.108;2024-02-14T09:46:15;37.73;33.65;52.88;;
40103;Laerm;25814;48.550;9.108;2024-02-14T09:48:45;38.87;33.94;51.87;;
40103;Laerm;25814;48.550;9.108;2024-02-14T09:51:12;42.72;33.36;59.61;;
40103;Laerm;25814;48.550;9.108;2024-02-14T09:53:39;45.73;34.65;59.07;;
40103;Laerm;25814;48.550;9.108;2024-02-14T09:56:10;41.73;33.31;53.61;;
40103;Laerm;25814;48.550;9.108;2024-02-14T09:58:43;43.55;33.61;58.24;;
40103;Laerm;25814;48.550;9.108;2024-02-14T10:01:09;43.64;33.84;62.06;;
40103;Laerm;25814;48.550;9.108;2024-02-14T10:03:36;44.79;33.84;64.67;;
40103;Laerm;25814;48.550;9.108;2024-02-14T10:06:03;45.01;33.06;68.59;;
40103;Laerm;25814;48.550;9.108;2024-02-14T10:08:30;38.68;32.96;56.90;;
40103;Laerm;25814;48.550;9.108;2024-02-14T10:10:57;38.88;33.57;58.73;;
40103;Laerm;25814;48.550;9.108;2024-02-14T10:13:27;41.32;34.00;53.32;;
40103;Laerm;25814;48.550;9.108;2024-02-14T10:15:56;40.57;33.99;54.31;;
40103;Laerm;25814;48.550;9.108;2024-02-14T10:18:22;40.15;32.88;51.95;;
40103;Laerm;25814;48.550;9.108;2024-02-14T10:20:56;36.51;33.76;43.39;;
40103;Laerm;25814;48.550;9.108;2024-02-14T10:23:23;40.02;34.32;60.56;;
40103;Laerm;25814;48.550;9.108;2024-02-14T10:25:59;49.91;35.20;64.76;;
40103;Laerm;25814;48.550;9.108;2024-02-14T10:28:25;40.16;34.40;49.48;;
40103;Laerm;25814;48.550;9.108;2024-02-14T10:30:54;40.67;34.17;53.75;;
40103;Laerm;25814;48.550;9.108;2024-02-14T10:33:20;37.39;33.34;47.91;;
40103;Laerm;25814;48.550;9.108;2024-02-14T10:35:47;39.94;34.47;46.82;;
40103;Laerm;25814;48.550;9.108;2024-02-14T10:38:16;49.55;33.89;77.18;;
40103;Laerm;25814;48.550;9.108;2024-02-14T10:40:47;52.88;34.33;65.34;;
40103;Laerm;25814;48.550;9.108;2024-02-14T10:43:13;50.02;33.70;62.74;;
40103;Laerm;25814;48.550;9.108;2024-02-14T10:45:39;41.77;32.69;58.79;;
40103;Laerm;25814;48.550;9.108;2024-02-14T10:48:05;39.20;33.40;53.44;;
40103;Laerm;25814;48.550;9.108;2024-02-14T10:50:36;36.60;32.77;46.60;;
40103;Laerm;25814;48.550;9.108;2024-02-14T10:53:14;40.13;33.43;56.69;;
40103;Laerm;25814;48.550;9.108;2024-02-14T10:55:47;40.28;33.21;56.10;;
40103;Laerm;25814;48.550;9.108;2024-02-14T10:58:16;38.88;33.67;57.26;;
40103;Laerm;25814;48.550;9.108;2024-02-14T11:00:44;37.79;33.61;44.03;;
40103;Laerm;25814;48.550;9.108;2024-02-14T11:03:11;36.89;33.15;54.93;;
40103;Laerm;25814;48.550;9.108;2024-02-14T11:05:46;40.32;32.32;54.96;;
40103;Laerm;25814;48.550;9.108;2024-02-14T11:08:19;35.64;32.75;43.93;;
40103;Laerm;25814;48.550;9.108;2024-02-14T11:10:56;39.31;33.77;51.86;;
40103;Laerm;25814;48.550;9.108;2024-02-14T11:13:29;38.72;33.55;52.99;;
40103;Laerm;25814;48.550;9.108;2024-02-14T11:16:01;40.88;36.45;55.55;;
40103;Laerm;25814;48.550;9.108;2024-02-14T11:18:30;36.57;32.67;52.45;;
40103;Laerm;25814;48.550;9.108;2024-02-14T11:20:56;36.77;32.56;49.92;;
40103;Laerm;25814;48.550;9.108;2024-02-14T11:23:26;43.75;32.17;57.15;;
40103;Laerm;25814;48.550;9.108;2024-02-14T11:26:03;39.50;32.31;55.91;;
40103;Laerm;25814;48.550;9.108;2024-02-14T11:28:30;43.22;33.13;61.40;;
40103;Laerm;25814;48.550;9.108;2024-02-14T11:31:02;37.39;31.66;55.65;;
40103;Laerm;25814;48.550;9.108;2024-02-14T11:33:29;39.84;34.57;51.09;;
40103;Laerm;25814;48.550;9.108;2024-02-14T11:35:55;40.10;34.15;52.81;;
40103;Laerm;25814;48.550;9.108;2024-02-14T11:38:24;37.36;33.44;51.87;;
40103;Laerm;25814;48.550;9.108;2024-02-14T11:40:54;39.72;33.97;53.34;;
40103;Laerm;25814;48.550;9.108;2024-02-14T11:43:22;37.43;32.93;52.23;;
40103;Laerm;25814;48.550;9.108;2024-02-14T11:45:49;40.27;34.34;55.76;;
40103;Laerm;25814;48.550;9.108;2024-02-14T11:48:16;43.69;34.85;58.94;;
40103;Laerm;25814;48.550;9.108;2024-02-14T11:50:44;43.67;34.88;58.42;;
40103;Laerm;25814;48.550;9.108;2024-02-14T11:53:12;41.94;35.45;56.73;;
40103;Laerm;25814;48.550;9.108;2024-02-14T11:55:39;44.50;35.17;60.95;;
40103;Laerm;25814;48.550;9.108;2024-02-14T11:58:10;37.03;33.96;46.68;;
40103;Laerm;25814;48.550;9.108;2024-02-14T12:00:40;38.28;33.82;53.97;;
40103;Laerm;25814;48.550;9.108;2024-02-14T12:03:16;39.83;33.74;55.75;;
40103;Laerm;25814;48.550;9.108;2024-02-14T12:05:42;39.09;35.11;55.47;;
40103;Laerm;25814;48.550;9.108;2024-02-14T12:08:10;40.35;33.54;57.04;;
40103;Laerm;25814;48.550;9.108;2024-02-14T12:10:36;39.58;33.30;54.39;;
40103;Laerm;25814;48.550;9.108;2024-02-14T12:13:13;38.79;34.14;51.85;;
40103;Laerm;25814;48.550;9.108;2024-02-14T12:15:49;39.95;34.24;48.12;;
40103;Laerm;25814;48.550;9.108;2024-02-14T12:18:20;37.41;34.42;45.97;;
40103;Laerm;25814;48.550;9.108;2024-02-14T12:20:46;41.59;33.30;62.58;;
40103;Laerm;25814;48.550;9.108;2024-02-14T12:23:17;38.90;33.01;60.05;;
40103;Laerm;25814;48.550;9.108;2024-02-14T12:25:45;41.51;33.52;59.87;;
40103;Laerm;25814;48.550;9.108;2024-02-14T12:28:19;38.69;33.50;56.59;;
40103;Laerm;25814;48.550;9.108;2024-02-14T12:30:51;38.39;33.22;56.68;;
40103;Laerm;25814;48.550;9.108;2024-02-14T12:33:26;37.20;33.52;47.94;;
40103;Laerm;25814;48.550;9.108;2024-02-14T12:35:55;37.52;34.78;49.53;;
40103;Laerm;25814;48.550;9.108;2024-02-14T12:38:22;38.45;32.34;54.52;;
40103;Laerm;25814;48.550;9.108;2024-02-14T12:40:49;39.02;33.48;57.25;;
40103;Laerm;25814;48.550;9.108;2024-02-14T12:43:16;42.54;34.19;55.78;;
40103;Laerm;25814;48.550;9.108;2024-02-14T12:45:43;39.72;33.93;51.31;;
40103;Laerm;25814;48.550;9.108;2024-02-14T12:48:10;36.29;32.33;48.06;;
40103;Laerm;25814;48.550;9.108;2024-02-14T12:50:37;37.90;32.80;48.88;;
40103;Laerm;25814;48.550;9.108;2024-02-14T12:53:04;38.72;32.72;52.14;;
40103;Laerm;25814;48.550;9.108;2024-02-14T12:55:30;38.59;32.32;52.23;;
40103;Laerm;25814;48.550;9.108;2024-02-14T12:57:57;43.72;33.44;54.64;;
40103;Laerm;25814;48.550;9.108;2024-02-14T13:00:26;38.25;32.80;54.27;;
40103;Laerm;25814;48.550;9.108;2024-02-14T13:02:52;40.81;32.72;64.58;;
40103;Laerm;25814;48.550;9.108;2024-02-14T13:05:19;43.84;32.76;70.07;;
40103;Laerm;25814;48.550;9.108;2024-02-14T13:07:45;44.09;32.27;56.69;;
40103;Laerm;25814;48.550;9.108;2024-02-14T13:10:12;41.62;33.25;61.31;;
40103;Laerm;25814;48.550;9.108;2024-02-14T13:12:38;36.25;33.03;51.74;;
40103;Laerm;25814;48.550;9.108;2024-02-14T13:15:05;35.14;32.94;50.61;;
40103;Laerm;25814;48.550;9.108;2024-02-14T13:17:32;36.79;33.51;42.63;;
40103;Laerm;25814;48.550;9.108;2024-02-14T13:19:58;37.99;33.04;53.80;;
40103;Laerm;25814;48.550;9.108;2024-02-14T13:22:26;36.83;32.92;51.81;;
40103;Laerm;25814;48.550;9.108;2024-02-14T13:24:53;39.35;33.23;59.74;;
40103;Laerm;25814;48.550;9.108;2024-02-14T13:27:19;38.14;34.61;50.86;;
40103;Laerm;25814;48.550;9.108;2024-02-14T13:29:47;39.76;33.38;49.92;;
40103;Laerm;25814;48.550;9.108;2024-02-14T13:32:13;36.73;32.73;44.49;;
40103;Laerm;25814;48.550;9.108;2024-02-14T13:34:39;39.03;32.67;61.89;;
40103;Laerm;25814;48.550;9.108;2024-02-14T13:37:05;38.99;32.99;58.47;;
40103;Laerm;25814;48.550;9.108;2024-02-14T13:39:32;41.98;33.06;53.61;;
40103;Laerm;25814;48.550;9.108;2024-02-14T13:41:58;42.81;32.82;57.63;;
40103;Laerm;25814;48.550;9.108;2024-02-14T13:44:25;35.27;32.31;46.10;;